Time;durP1;ratioP1;P1;durP2;ratioP2;P2;SDS_P1;SDS_P2;PMS_P1;PMS_P2;Temp;Humidity;BMP_temperature;BMP_pressure;BME280_temperature;BME280_humidity;BME280_pressure;Samples;Min_cycle;Max_cycle;Signal;HPM_P1;HPM_P2
2024/02/05 00:00:48;;;;;;;3.78;1.40;;;;;;;5.20;nan;96528.16;2066239;28;20034;-65
2024/02/05 00:01:49;;;;;;;1.75;0.68;;;;;;;5.23;nan;96534.97;2065826;28;20050;-65
2024/02/05 00:02:50;;;;;;;7.40;1.75;;;;;;;5.27;nan;96528.91;2066103;28;20049;-64
2024/02/05 00:03:52;;;;;;;2.95;1.20;;;;;;;5.24;nan;96536.69;2065549;28;20065;-65
2024/02/05 00:04:53;;;;;;;3.47;1.38;;;;;;;5.25;nan;96528.09;2066353;28;20486;-64
2024/02/05 00:05:54;;;;;;;2.35;1.20;;;;;;;5.23;nan;96525.53;2065942;28;20050;-64
2024/02/05 00:06:55;;;;;;;1.85;1.08;;;;;;;5.23;nan;96520.38;2065352;28;20410;-64
2024/02/05 00:07:56;;;;;;;3.15;0.98;;;;;;;5.25;nan;96520.38;2066042;28;20038;-65
2024/02/05 00:08:57;;;;;;;3.58;1.67;;;;;;;5.23;nan;96517.81;2066080;28;20068;-64
2024/02/05 00:09:58;;;;;;;6.22;1.25;;;;;;;5.26;nan;96530.63;2065356;28;20054;-64
2024/02/05 00:10:59;;;;;;;4.55;1.60;;;;;;;5.29;nan;96525.44;2065931;28;20042;-64
2024/02/05 00:12:00;;;;;;;3.50;1.42;;;;;;;5.36;nan;96522.75;2065747;28;20050;-64
2024/02/05 00:13:02;;;;;;;3.55;1.50;;;;;;;5.38;nan;96518.41;2064682;28;20065;-63
2024/02/05 00:14:03;;;;;;;4.40;1.17;;;;;;;5.40;nan;96522.66;2049327;29;20054;-64
2024/02/05 00:15:05;;;;;;;4.15;1.15;;;;;;;5.38;nan;96529.56;2049480;29;20042;-64
2024/02/05 00:16:07;;;;;;;2.45;0.90;;;;;;;5.39;nan;96523.53;2065688;28;20054;-64
2024/02/05 00:17:09;;;;;;;3.40;1.15;;;;;;;5.42;nan;96520.03;2065836;28;20114;-64
2024/02/05 00:18:10;;;;;;;2.97;1.40;;;;;;;5.49;nan;96519.06;2065879;28;20042;-64
2024/02/05 00:19:12;;;;;;;4.38;1.33;;;;;;;5.63;nan;96511.06;2065909;28;20038;-64
2024/02/05 00:20:13;;;;;;;4.80;1.27;;;;;;;5.68;nan;96519.56;2065332;28;20414;-64
2024/02/05 00:21:14;;;;;;;4.78;1.70;;;;;;;5.65;nan;96523.03;2065786;28;20062;-64
2024/02/05 00:22:15;;;;;;;3.85;1.17;;;;;;;5.63;nan;96516.22;2065374;28;20375;-65
2024/02/05 00:23:17;;;;;;;5.35;1.20;;;;;;;5.63;nan;96517.06;2066120;28;20034;-64
2024/02/05 00:24:18;;;;;;;5.05;1.95;;;;;;;5.60;nan;96509.41;2065349;28;20069;-64
2024/02/05 00:25:22;;;;;;;3.28;1.30;;;;;;;5.64;nan;96517.91;2057371;28;20054;-64
2024/02/05 00:26:23;;;;;;;2.28;1.20;;;;;;;5.72;nan;96518.59;2057659;28;20039;-64
2024/02/05 00:27:24;;;;;;;4.25;1.45;;;;;;;5.69;nan;96514.38;2065838;28;20042;-64
2024/02/05 00:28:25;;;;;;;2.55;1.20;;;;;;;5.70;nan;96520.38;2065830;28;20053;-64
2024/02/05 00:29:26;;;;;;;4.47;1.27;;;;;;;5.74;nan;96525.44;2066131;28;20038;-65
2024/02/05 00:30:27;;;;;;;2.55;1.15;;;;;;;5.77;nan;96521.94;2065854;28;20046;-64
2024/02/05 00:31:28;;;;;;;2.60;1.08;;;;;;;5.75;nan;96524.56;2065738;28;20049;-64
2024/02/05 00:32:29;;;;;;;5.38;1.23;;;;;;;5.80;nan;96526.19;2065738;28;20034;-64
2024/02/05 00:33:31;;;;;;;6.75;0.98;;;;;;;5.86;nan;96521.78;2065973;28;20034;-64
2024/02/05 00:34:32;;;;;;;8.20;1.65;;;;;;;5.91;nan;96526.84;2065741;28;20450;-64
2024/02/05 00:35:33;;;;;;;5.97;1.50;;;;;;;5.90;nan;96519.97;2065813;28;20034;-65
2024/02/05 00:36:34;;;;;;;3.95;1.23;;;;;;;5.88;nan;96525.19;2065837;28;20042;-64
2024/02/05 00:37:35;;;;;;;4.20;1.30;;;;;;;5.87;nan;96515.72;2065792;28;20038;-64
2024/02/05 00:38:36;;;;;;;2.67;1.25;;;;;;;5.87;nan;96526.03;2065880;28;20042;-64
2024/02/05 00:39:37;;;;;;;3.65;1.30;;;;;;;5.87;nan;96528.63;2065808;28;20410;-64
2024/02/05 00:40:41;;;;;;;4.18;1.42;;;;;;;5.89;nan;96528.59;2066075;28;20045;-64
2024/02/05 00:41:42;;;;;;;2.53;1.40;;;;;;;5.87;nan;96527.78;2065812;28;20049;-65
2024/02/05 00:42:43;;;;;;;2.15;1.10;;;;;;;5.87;nan;96531.19;2065991;28;20042;-65
2024/02/05 00:43:45;;;;;;;2.78;1.00;;;;;;;5.88;nan;96522.59;2065999;28;20042;-65
2024/02/05 00:44:46;;;;;;;2.22;1.23;;;;;;;5.94;nan;96531.97;2065379;28;20046;-65
2024/02/05 00:45:47;;;;;;;1.92;1.17;;;;;;;5.96;nan;96533.63;2065209;28;20419;-65
2024/02/05 00:46:48;;;;;;;2.58;0.93;;;;;;;6.01;nan;96530.09;2065641;28;20046;-65
2024/02/05 00:47:49;;;;;;;3.88;1.33;;;;;;;6.06;nan;96516.22;2064816;28;20050;-65
2024/02/05 00:48:51;;;;;;;2.40;1.00;;;;;;;6.06;nan;96518.81;2065668;28;20061;-66
2024/02/05 00:49:52;;;;;;;1.63;1.00;;;;;;;6.08;nan;96523.94;2065133;28;20054;-65
2024/02/05 00:50:53;;;;;;;2.67;1.23;;;;;;;6.11;nan;96519.56;2065466;28;20054;-64
2024/02/05 00:51:54;;;;;;;4.45;1.02;;;;;;;6.12;nan;96528.13;2065468;28;20399;-64
2024/02/05 00:52:55;;;;;;;3.33;1.00;;;;;;;6.15;nan;96525.53;2056544;28;20050;-64
2024/02/05 00:53:57;;;;;;;3.72;1.38;;;;;;;6.18;nan;96517.72;2056646;28;20047;-65
2024/02/05 00:54:58;;;;;;;2.97;1.02;;;;;;;6.33;nan;96517.34;2065373;28;20045;-65
2024/02/05 00:55:59;;;;;;;2.25;0.90;;;;;;;6.38;nan;96523.25;2065342;28;20402;-67
2024/02/05 00:57:00;;;;;;;6.15;2.00;;;;;;;6.35;nan;96528.50;2065668;28;20050;-64
2024/02/05 00:58:04;;;;;;;2.97;1.23;;;;;;;6.33;nan;96522.50;2065247;28;20081;-65
2024/02/05 00:59:06;;;;;;;2.45;1.20;;;;;;;6.39;nan;96527.56;2064850;28;20050;-64
2024/02/05 01:00:08;;;;;;;2.92;1.00;;;;;;;6.39;nan;96522.41;2065808;28;20049;-64
2024/02/05 01:01:10;;;;;;;3.88;1.20;;;;;;;6.44;nan;96537.75;2065667;28;20035;-64
2024/02/05 01:02:12;;;;;;;4.55;1.13;;;;;;;6.48;nan;96530.81;2065746;28;20054;-64
2024/02/05 01:03:13;;;;;;;2.85;0.93;;;;;;;6.50;nan;96532.47;2065588;28;20046;-64
2024/02/05 01:04:14;;;;;;;2.53;1.25;;;;;;;6.53;nan;96534.97;2064745;28;20046;-64
2024/02/05 01:05:17;;;;;;;2.50;1.15;;;;;;;6.55;nan;96532.38;2065690;28;20119;-64
2024/02/05 01:06:18;;;;;;;3.30;1.30;;;;;;;6.54;nan;96538.41;2065612;28;20042;-64
2024/02/05 01:07:19;;;;;;;2.97;1.30;;;;;;;6.55;nan;96543.53;2065317;28;20057;-65
2024/02/05 01:08:21;;;;;;;3.60;1.10;;;;;;;6.58;nan;96546.06;2065706;28;20050;-64
2024/02/05 01:09:22;;;;;;;3.08;1.10;;;;;;;6.57;nan;96546.06;2065072;28;20188;-65
2024/02/05 01:10:23;;;;;;;2.60;1.10;;;;;;;6.59;nan;96541.72;2065357;28;20046;-65
2024/02/05 01:11:24;;;;;;;3.20;1.10;;;;;;;6.63;nan;96538.22;2065613;28;20046;-64
2024/02/05 01:12:25;;;;;;;2.85;1.10;;;;;;;6.67;nan;96546.72;2064723;28;20050;-64
2024/02/05 01:13:26;;;;;;;2.15;0.93;;;;;;;6.69;nan;96527.75;2065650;28;20388;-64
2024/02/05 01:14:27;;;;;;;3.30;0.90;;;;;;;6.73;nan;96541.41;2065229;28;20050;-65
2024/02/05 01:15:28;;;;;;;2.88;0.93;;;;;;;6.77;nan;96543.03;2065657;28;20053;-64
2024/02/05 01:16:30;;;;;;;2.63;1.00;;;;;;;6.77;nan;96543.88;2065348;28;20470;-65
2024/02/05 01:17:31;;;;;;;2.03;0.98;;;;;;;6.78;nan;96549.91;2064932;28;20042;-65
2024/02/05 01:18:32;;;;;;;3.13;1.45;;;;;;;6.76;nan;96547.38;2065295;28;20050;-64
2024/02/05 01:19:33;;;;;;;4.43;1.20;;;;;;;6.75;nan;96540.50;2065051;28;20046;-65
2024/02/05 01:20:34;;;;;;;1.92;0.73;;;;;;;6.79;nan;96549.88;2064922;28;20072;-64
2024/02/05 01:21:36;;;;;;;3.40;1.08;;;;;;;6.77;nan;96551.63;2056468;28;20050;-64
2024/02/05 01:22:38;;;;;;;2.55;0.98;;;;;;;6.76;nan;96547.38;2057026;28;20050;-65
2024/02/05 01:23:39;;;;;;;1.95;0.85;;;;;;;6.80;nan;96550.72;2065472;28;20038;-64
2024/02/05 01:24:40;;;;;;;1.63;1.08;;;;;;;6.80;nan;96550.72;2065562;28;20044;-64
2024/02/05 01:25:41;;;;;;;1.67;0.95;;;;;;;6.81;nan;96552.41;2065436;28;20034;-65
2024/02/05 01:26:42;;;;;;;4.03;1.20;;;;;;;6.82;nan;96554.13;2065538;28;20038;-64
2024/02/05 01:27:43;;;;;;;3.85;1.15;;;;;;;6.82;nan;96552.38;2064901;28;20058;-65
2024/02/05 01:28:45;;;;;;;4.15;1.45;;;;;;;6.85;nan;96561.78;2065430;28;20053;-64
2024/02/05 01:29:46;;;;;;;3.53;1.17;;;;;;;6.85;nan;96562.63;2065454;28;20045;-65
2024/02/05 01:30:47;;;;;;;3.03;0.93;;;;;;;6.85;nan;96562.63;2065421;28;20050;-65
2024/02/05 01:31:48;;;;;;;2.90;0.90;;;;;;;6.84;nan;96554.91;2065460;28;20509;-64
2024/02/05 01:32:49;;;;;;;1.92;1.10;;;;;;;6.84;nan;96550.63;2065535;28;20045;-65
2024/02/05 01:33:51;;;;;;;3.40;1.10;;;;;;;6.83;nan;96554.06;2065829;28;20587;-64
2024/02/05 01:34:52;;;;;;;4.03;1.30;;;;;;;6.80;nan;96551.56;2065430;28;20035;-64
2024/02/05 01:35:53;;;;;;;1.30;0.80;;;;;;;6.84;nan;96552.31;2065786;28;20050;-65
2024/02/05 01:36:54;;;;;;;5.57;1.35;;;;;;;6.87;nan;96551.41;2065559;28;20053;-65
2024/02/05 01:37:56;;;;;;;2.58;1.00;;;;;;;6.86;nan;96550.56;2065435;28;20039;-64
2024/02/05 01:38:57;;;;;;;2.20;0.95;;;;;;;6.84;nan;96558.38;2065412;28;20046;-64
2024/02/05 01:39:58;;;;;;;2.80;1.15;;;;;;;6.85;nan;96554.88;2065701;28;20489;-65
2024/02/05 01:40:59;;;;;;;2.53;0.98;;;;;;;6.81;nan;96550.66;2064609;28;20054;-65
2024/02/05 01:42:00;;;;;;;2.45;0.95;;;;;;;6.82;nan;96572.19;2064872;28;20042;-65
2024/02/05 01:43:01;;;;;;;1.00;0.88;;;;;;;6.80;nan;96559.31;2065082;28;20046;-65
2024/02/05 01:44:02;;;;;;;3.85;1.23;;;;;;;6.79;nan;96567.06;2064901;28;20058;-64
2024/02/05 01:45:06;;;;;;;2.17;1.00;;;;;;;6.79;nan;96552.47;2064633;28;20553;-65
2024/02/05 01:46:15;;;;;;;3.97;1.10;;;;;;;6.80;nan;96567.06;2065041;28;20498;-65
2024/02/05 01:47:16;;;;;;;2.25;1.20;;;;;;;6.80;nan;96546.41;2056933;28;20065;-64
2024/02/05 01:48:19;;;;;;;4.22;0.98;;;;;;;6.78;nan;96555.91;2049540;28;20043;-64
2024/02/05 01:49:20;;;;;;;3.00;1.08;;;;;;;6.79;nan;96560.19;2041163;29;20048;-64
2024/02/05 01:50:21;;;;;;;2.55;1.02;;;;;;;6.78;nan;96555.91;2049102;28;20463;-64
2024/02/05 01:51:22;;;;;;;0.98;0.80;;;;;;;6.75;nan;96545.66;2056754;28;20050;-65
2024/02/05 01:52:24;;;;;;;1.50;0.75;;;;;;;6.76;nan;96557.69;2057027;28;20051;-64
2024/02/05 01:53:25;;;;;;;2.45;1.10;;;;;;;6.77;nan;96559.38;2057079;28;20043;-64
2024/02/05 01:54:26;;;;;;;4.05;0.90;;;;;;;6.76;nan;96556.81;2056314;28;20050;-65
2024/02/05 01:55:27;;;;;;;2.70;0.98;;;;;;;6.75;nan;96558.56;2049143;29;20511;-64
2024/02/05 01:56:32;;;;;;;4.68;0.85;;;;;;;6.77;nan;96549.06;2041090;29;20043;-65
2024/02/05 01:57:33;;;;;;;2.38;1.25;;;;;;;6.77;nan;96563.69;2057435;28;20053;-64
2024/02/05 01:58:34;;;;;;;1.55;0.90;;;;;;;6.77;nan;96543.88;2056196;28;20490;-65
2024/02/05 01:59:36;;;;;;;2.05;0.93;;;;;;;6.81;nan;96552.41;2056809;28;20042;-64
2024/02/05 02:00:37;;;;;;;1.88;0.93;;;;;;;6.79;nan;96554.16;2048478;29;20055;-64
2024/02/05 02:01:38;;;;;;;1.27;0.77;;;;;;;6.78;nan;96553.31;2040604;29;20411;-64
2024/02/05 02:02:39;;;;;;;4.25;1.17;;;;;;;6.75;nan;96555.13;2056115;28;20047;-65
2024/02/05 02:03:40;;;;;;;2.35;0.80;;;;;;;6.77;nan;96561.97;2065385;28;20045;-64
2024/02/05 02:04:41;;;;;;;3.92;1.10;;;;;;;6.76;nan;96549.06;2065090;28;20058;-65
2024/02/05 02:05:43;;;;;;;2.55;1.00;;;;;;;6.75;nan;96553.41;2048930;29;20479;-64
2024/02/05 02:06:44;;;;;;;1.25;0.75;;;;;;;6.74;nan;96550.88;2049657;28;20047;-65
2024/02/05 02:07:45;;;;;;;1.85;0.52;;;;;;;6.75;nan;96560.31;2066415;28;20050;-65
2024/02/05 02:08:46;;;;;;;3.50;1.27;;;;;;;6.77;nan;96550.78;2066985;28;20041;-65
2024/02/05 02:09:47;;;;;;;2.05;0.95;;;;;;;6.78;nan;96547.31;2058219;28;20055;-64
2024/02/05 02:10:49;;;;;;;1.63;0.98;;;;;;;6.80;nan;96548.13;2057767;28;20434;-65
2024/02/05 02:11:50;;;;;;;5.93;1.50;;;;;;;6.80;nan;96546.41;2066538;28;20046;-64
2024/02/05 02:12:52;;;;;;;1.40;0.93;;;;;;;6.78;nan;96544.72;2057522;28;20053;-64
2024/02/05 02:13:53;;;;;;;2.92;0.93;;;;;;;6.76;nan;96549.94;2058287;28;20091;-65
2024/02/05 02:14:54;;;;;;;4.75;1.10;;;;;;;6.73;nan;96542.25;2067019;28;20518;-64
2024/02/05 02:15:57;;;;;;;1.75;1.00;;;;;;;6.71;nan;96545.75;2066833;28;20049;-65
2024/02/05 02:16:58;;;;;;;1.77;0.90;;;;;;;6.64;nan;96542.47;2050226;29;20047;-64
2024/02/05 02:18:01;;;;;;;3.00;1.17;;;;;;;6.56;nan;96540.06;2050733;28;20031;-64
2024/02/05 02:19:04;;;;;;;3.78;0.85;;;;;;;6.53;nan;96536.72;2065880;28;20050;-65
2024/02/05 02:20:06;;;;;;;1.95;0.98;;;;;;;6.53;nan;96534.13;2050305;29;20110;-65
2024/02/05 02:21:09;;;;;;;4.78;1.13;;;;;;;6.52;nan;96533.28;2043754;28;20055;-64
2024/02/05 02:22:23;;;;;;;2.88;0.90;;;;;;;6.48;nan;96535.97;2050449;28;20035;-64
2024/02/05 02:23:29;;;;;;;2.05;0.77;;;;;;;6.45;nan;96524.00;2052328;28;20046;-65
2024/02/05 02:24:31;;;;;;;7.03;1.00;;;;;;;6.46;nan;96535.16;2043081;29;20523;-65
2024/02/05 02:25:32;;;;;;;1.75;0.88;;;;;;;6.46;nan;96533.41;2051944;28;20419;-65
2024/02/05 02:26:34;;;;;;;2.72;0.90;;;;;;;6.49;nan;96530.75;2066938;28;20030;-64
2024/02/05 02:27:35;;;;;;;4.05;1.33;;;;;;;6.49;nan;96538.50;2067091;28;20046;-65
2024/02/05 02:28:36;;;;;;;1.50;0.68;;;;;;;6.53;nan;96531.56;2066206;28;20042;-64
2024/02/05 02:29:37;;;;;;;2.33;1.15;;;;;;;6.49;nan;96535.91;2067019;28;20034;-64
2024/02/05 02:30:38;;;;;;;1.80;0.70;;;;;;;6.50;nan;96534.22;2058340;28;20046;-65
2024/02/05 02:31:39;;;;;;;1.65;0.93;;;;;;;6.50;nan;96534.22;2049952;28;20059;-65
2024/02/05 02:32:40;;;;;;;0.73;0.50;;;;;;;6.52;nan;96528.13;2057875;28;20404;-65
2024/02/05 02:33:55;;;;;;;1.60;0.80;;;;;;;6.54;nan;96531.50;2066149;28;20074;-64
2024/02/05 02:34:59;;;;;;;2.50;1.00;;;;;;;6.54;nan;96544.41;2049582;29;20066;-65
2024/02/05 02:36:08;;;;;;;2.15;1.10;;;;;;;6.52;nan;96543.63;2051207;28;20047;-65
2024/02/05 02:37:09;;;;;;;3.20;1.00;;;;;;;6.53;nan;96539.31;2050422;28;20047;-64
2024/02/05 02:38:17;;;;;;;2.90;1.10;;;;;;;6.52;nan;96543.63;2042284;29;20043;-64
2024/02/05 02:39:19;;;;;;;3.22;0.90;;;;;;;6.51;nan;96543.63;2043525;28;20063;-65
2024/02/05 02:40:20;;;;;;;2.10;0.90;;;;;;;6.55;nan;96542.69;2049747;28;20051;-64
2024/02/05 02:41:22;;;;;;;3.33;1.10;;;;;;;6.53;nan;96532.41;2042222;29;20565;-64
2024/02/05 02:42:24;;;;;;;3.13;1.08;;;;;;;6.53;nan;96539.31;2050385;28;20032;-64
2024/02/05 02:43:25;;;;;;;4.43;1.15;;;;;;;6.53;nan;96544.47;2057457;28;20562;-64
2024/02/05 02:44:27;;;;;;;2.08;0.93;;;;;;;6.53;nan;96539.31;2057895;28;20038;-64
2024/02/05 02:45:28;;;;;;;2.03;0.90;;;;;;;6.52;nan;96547.91;2050126;28;20464;-64
2024/02/05 02:46:29;;;;;;;3.13;0.80;;;;;;;6.50;nan;96539.38;2057675;28;20057;-64
2024/02/05 02:47:30;;;;;;;1.67;0.75;;;;;;;6.50;nan;96544.53;2066546;28;20034;-64
2024/02/05 02:48:31;;;;;;;3.22;1.13;;;;;;;6.48;nan;96539.41;2050128;29;20050;-65
2024/02/05 02:49:32;;;;;;;2.75;0.90;;;;;;;6.49;nan;96550.56;2050125;28;20050;-64
2024/02/05 02:50:33;;;;;;;4.20;1.00;;;;;;;6.46;nan;96546.31;2066649;28;20035;-64
2024/02/05 02:51:34;;;;;;;5.25;1.33;;;;;;;6.44;nan;96545.50;2066754;28;20395;-64
2024/02/05 02:52:36;;;;;;;2.58;0.90;;;;;;;6.44;nan;96553.22;2066509;28;20049;-64
2024/02/05 02:53:37;;;;;;;2.97;1.10;;;;;;;6.40;nan;96544.72;2065854;28;20049;-65
2024/02/05 02:54:38;;;;;;;3.42;1.10;;;;;;;6.40;nan;96559.34;2066366;28;20050;-64
2024/02/05 02:55:39;;;;;;;3.53;1.15;;;;;;;6.35;nan;96551.72;2066588;28;20110;-64
2024/02/05 02:56:41;;;;;;;2.58;1.20;;;;;;;6.36;nan;96558.59;2066078;28;20054;-64
2024/02/05 02:57:42;;;;;;;2.03;0.90;;;;;;;6.32;nan;96551.78;2066232;28;20053;-65
2024/02/05 02:58:43;;;;;;;3.90;1.15;;;;;;;6.30;nan;96558.69;2065426;28;20058;-64
2024/02/05 02:59:44;;;;;;;2.67;0.90;;;;;;;6.27;nan;96561.34;2065658;28;20054;-65
2024/02/05 03:00:45;;;;;;;1.98;1.00;;;;;;;6.26;nan;96562.25;2066595;28;20046;-65
2024/02/05 03:01:47;;;;;;;3.28;1.33;;;;;;;6.23;nan;96575.22;2065862;28;20054;-64
2024/02/05 03:02:48;;;;;;;1.33;0.80;;;;;;;6.19;nan;96569.25;2066737;28;20367;-64
2024/02/05 03:03:49;;;;;;;3.17;0.90;;;;;;;6.17;nan;96568.44;2065750;28;20054;-64
2024/02/05 03:04:53;;;;;;;3.72;1.10;;;;;;;6.15;nan;96567.63;2066555;28;20111;-65
2024/02/05 03:05:54;;;;;;;4.93;1.13;;;;;;;6.12;nan;96566.81;2065715;28;20061;-64
2024/02/05 03:06:55;;;;;;;2.63;1.10;;;;;;;6.12;nan;96571.97;2066446;28;20057;-64
2024/02/05 03:07:56;;;;;;;3.53;1.30;;;;;;;6.07;nan;96574.66;2065525;28;20054;-64
2024/02/05 03:08:57;;;;;;;4.13;1.17;;;;;;;6.03;nan;96578.16;2066436;28;20422;-64
2024/02/05 03:09:58;;;;;;;4.53;1.35;;;;;;;5.99;nan;96580.84;2066617;28;20397;-65
2024/02/05 03:10:59;;;;;;;2.75;1.40;;;;;;;5.95;nan;96578.31;2066464;28;20042;-64
2024/02/05 03:12:00;;;;;;;6.18;1.23;;;;;;;5.91;nan;96574.09;2066484;28;20042;-65
2024/02/05 03:13:02;;;;;;;2.90;0.95;;;;;;;5.90;nan;96564.63;2065726;28;20053;-64
2024/02/05 03:14:03;;;;;;;3.30;1.35;;;;;;;5.89;nan;96572.41;2066517;28;20050;-65
2024/02/05 03:15:04;;;;;;;2.15;0.82;;;;;;;5.87;nan;96581.91;2065781;28;20046;-64
2024/02/05 03:16:06;;;;;;;3.35;1.10;;;;;;;5.87;nan;96584.47;2066475;28;20069;-66
2024/02/05 03:17:07;;;;;;;4.55;1.08;;;;;;;5.86;nan;96587.94;2049740;29;20483;-64
2024/02/05 03:18:08;;;;;;;1.90;1.05;;;;;;;5.84;nan;96580.22;2049464;28;20042;-65
2024/02/05 03:19:10;;;;;;;3.70;1.90;;;;;;;5.83;nan;96593.16;2065974;28;20054;-64
2024/02/05 03:20:13;;;;;;;5.15;1.30;;;;;;;5.82;nan;96583.72;2065975;28;20077;-64
2024/02/05 03:21:15;;;;;;;4.07;1.30;;;;;;;5.82;nan;96594.88;2066354;28;20068;-64
2024/02/05 03:22:16;;;;;;;2.97;0.90;;;;;;;5.79;nan;96594.09;2066296;28;20449;-65
2024/02/05 03:23:17;;;;;;;2.70;1.50;;;;;;;5.79;nan;96599.25;2066254;28;20038;-64
2024/02/05 03:24:18;;;;;;;3.08;1.30;;;;;;;5.78;nan;96608.72;2066377;28;20042;-64
2024/02/05 03:25:19;;;;;;;4.15;1.30;;;;;;;5.77;nan;96601.84;2066579;28;20398;-64
2024/02/05 03:26:20;;;;;;;3.53;1.35;;;;;;;5.74;nan;96601.91;2066417;28;20398;-64
2024/02/05 03:27:21;;;;;;;4.10;1.33;;;;;;;5.72;nan;96601.06;2066313;28;20038;-65
2024/02/05 03:28:26;;;;;;;3.65;1.48;;;;;;;5.70;nan;96597.69;2066400;28;20057;-65
2024/02/05 03:29:27;;;;;;;5.68;1.38;;;;;;;5.68;nan;96596.88;2066318;28;20038;-65
2024/02/05 03:30:32;;;;;;;1.92;0.93;;;;;;;5.69;nan;96604.59;2065500;28;20426;-64
2024/02/05 03:31:33;;;;;;;2.42;1.15;;;;;;;5.67;nan;96611.47;2065442;28;20471;-64
2024/02/05 03:32:34;;;;;;;4.10;1.42;;;;;;;5.66;nan;96601.19;2066543;28;20026;-64
2024/02/05 03:33:35;;;;;;;5.82;1.30;;;;;;;5.65;nan;96609.81;2065667;28;20406;-64
2024/02/05 03:34:36;;;;;;;3.63;1.17;;;;;;;5.63;nan;96612.41;2066541;28;20038;-65
2024/02/05 03:35:37;;;;;;;2.85;1.38;;;;;;;5.61;nan;96613.31;2065713;28;20050;-64
2024/02/05 03:36:38;;;;;;;2.35;1.08;;;;;;;5.59;nan;96607.34;2065436;28;20057;-65
2024/02/05 03:37:40;;;;;;;2.88;0.95;;;;;;;5.56;nan;96607.38;2066497;28;20038;-64
2024/02/05 03:38:41;;;;;;;3.78;1.10;;;;;;;5.52;nan;96604.88;2066457;28;20049;-64
2024/02/05 03:39:42;;;;;;;4.32;1.50;;;;;;;5.50;nan;96614.34;2065565;28;20057;-64
2024/02/05 03:40:43;;;;;;;1.35;0.75;;;;;;;5.48;nan;96608.38;2066350;28;20371;-64
2024/02/05 03:41:44;;;;;;;6.78;1.48;;;;;;;5.46;nan;96604.97;2065897;28;20074;-64
2024/02/05 03:42:45;;;;;;;3.20;1.48;;;;;;;5.45;nan;96611.03;2065336;28;20049;-64
2024/02/05 03:43:48;;;;;;;2.70;1.20;;;;;;;5.44;nan;96611.88;2065602;28;20053;-64
2024/02/05 03:44:49;;;;;;;4.47;1.25;;;;;;;5.42;nan;96612.78;2066111;28;20038;-64
2024/02/05 03:45:50;;;;;;;4.07;1.55;;;;;;;5.39;nan;96623.97;2065857;28;20054;-64
2024/02/05 03:46:51;;;;;;;4.18;1.15;;;;;;;5.39;nan;96620.56;2066105;28;20038;-64
2024/02/05 03:47:52;;;;;;;4.03;1.27;;;;;;;5.38;nan;96622.28;2066257;28;20049;-64
2024/02/05 03:48:54;;;;;;;2.65;1.48;;;;;;;5.37;nan;96625.72;2065907;28;20403;-64
2024/02/05 03:49:55;;;;;;;4.30;1.45;;;;;;;5.35;nan;96622.34;2065573;28;20486;-64
2024/02/05 03:50:56;;;;;;;3.95;1.45;;;;;;;5.35;nan;96630.06;2066190;28;20057;-64
2024/02/05 03:51:57;;;;;;;2.10;1.17;;;;;;;5.33;nan;96629.25;2065483;28;20058;-64
2024/02/05 03:52:58;;;;;;;2.85;1.23;;;;;;;5.30;nan;96625.00;2066089;28;20049;-64
2024/02/05 03:54:04;;;;;;;3.72;1.58;;;;;;;5.29;nan;96627.56;2066159;28;20050;-64
2024/02/05 03:55:06;;;;;;;3.63;1.60;;;;;;;5.27;nan;96632.78;2065399;28;20054;-64
2024/02/05 03:56:09;;;;;;;2.65;1.25;;;;;;;5.26;nan;96631.06;2066115;28;20043;-64
2024/02/05 03:57:10;;;;;;;3.88;1.30;;;;;;;5.25;nan;96631.94;2066069;28;20042;-64
2024/02/05 03:58:11;;;;;;;4.90;1.60;;;;;;;5.26;nan;96627.63;2066161;28;20086;-64
2024/02/05 03:59:12;;;;;;;4.15;1.27;;;;;;;5.25;nan;96636.25;2065324;28;20050;-64
2024/02/05 04:00:14;;;;;;;4.22;1.58;;;;;;;5.25;nan;96642.25;2065492;28;20050;-64
2024/02/05 04:01:15;;;;;;;5.82;1.75;;;;;;;5.25;nan;96637.09;2049364;29;20059;-64
2024/02/05 04:02:16;;;;;;;2.85;1.30;;;;;;;5.23;nan;96643.13;2049587;28;20059;-65
2024/02/05 04:03:17;;;;;;;4.75;1.15;;;;;;;5.24;nan;96652.59;2065867;28;20038;-65
2024/02/05 04:04:18;;;;;;;5.47;1.60;;;;;;;5.22;nan;96644.88;2065450;28;20057;-65
2024/02/05 04:05:19;;;;;;;2.72;1.52;;;;;;;5.21;nan;96629.44;2066173;28;20478;-64
2024/02/05 04:06:20;;;;;;;3.20;1.27;;;;;;;5.22;nan;96637.16;2066229;28;20034;-64
2024/02/05 04:07:21;;;;;;;4.43;1.73;;;;;;;5.23;nan;96643.13;2065460;28;20422;-64
2024/02/05 04:08:24;;;;;;;3.85;1.15;;;;;;;5.23;nan;96643.97;2065683;28;20045;-64
2024/02/05 04:09:25;;;;;;;2.42;1.48;;;;;;;5.23;nan;96643.97;2065158;28;20046;-64
2024/02/05 04:10:29;;;;;;;2.97;1.30;;;;;;;5.25;nan;96649.13;2066140;28;20038;-64
2024/02/05 04:11:30;;;;;;;3.63;1.30;;;;;;;5.25;nan;96649.97;2065060;28;20050;-64
2024/02/05 04:12:31;;;;;;;2.70;1.10;;;;;;;5.22;nan;96652.59;2066014;28;20042;-64
2024/02/05 04:13:32;;;;;;;3.75;1.60;;;;;;;5.25;nan;96651.69;2065019;28;20046;-64
2024/02/05 04:14:33;;;;;;;3.90;1.38;;;;;;;5.26;nan;96648.22;2065814;28;20050;-64
2024/02/05 04:15:34;;;;;;;3.58;1.48;;;;;;;5.25;nan;96655.13;2066130;28;20387;-66
2024/02/05 04:16:36;;;;;;;3.72;1.65;;;;;;;5.24;nan;96656.00;2066907;28;20046;-65
2024/02/05 04:17:37;;;;;;;4.03;0.85;;;;;;;5.23;nan;96658.59;2066301;28;20050;-65
2024/02/05 04:18:38;;;;;;;1.70;0.82;;;;;;;5.23;nan;96653.44;2066776;28;20045;-65
2024/02/05 04:19:43;;;;;;;9.07;1.40;;;;;;;5.21;nan;96647.44;2065435;28;20602;-65
2024/02/05 04:20:44;;;;;;;4.15;1.35;;;;;;;5.20;nan;96669.78;2056986;28;20062;-64
2024/02/05 04:21:45;;;;;;;3.95;1.60;;;;;;;5.22;nan;96662.06;2057258;28;20050;-64
2024/02/05 04:22:48;;;;;;;7.10;1.63;;;;;;;5.22;nan;96659.47;2065948;28;20478;-64
2024/02/05 04:23:49;;;;;;;2.60;1.17;;;;;;;5.22;nan;96642.28;2065885;28;20046;-65
2024/02/05 04:24:50;;;;;;;3.03;1.33;;;;;;;5.22;nan;96668.03;2065876;28;20050;-65
2024/02/05 04:25:51;;;;;;;6.10;1.58;;;;;;;5.24;nan;96668.03;2065846;28;20430;-64
2024/02/05 04:26:53;;;;;;;2.20;1.27;;;;;;;5.22;nan;96667.19;2065354;28;20053;-65
2024/02/05 04:27:54;;;;;;;3.22;1.50;;;;;;;5.23;nan;96672.31;2065557;28;20054;-65
2024/02/05 04:28:55;;;;;;;3.08;1.27;;;;;;;5.21;nan;96645.75;2065141;28;20054;-65
2024/02/05 04:29:56;;;;;;;2.03;0.80;;;;;;;5.21;nan;96660.31;2065878;28;20042;-64
2024/02/05 04:30:57;;;;;;;6.82;1.23;;;;;;;5.22;nan;96667.19;2065167;28;20056;-65
2024/02/05 04:31:59;;;;;;;3.33;0.93;;;;;;;5.19;nan;96673.25;2065727;28;20061;-65
2024/02/05 04:33:00;;;;;;;3.22;1.13;;;;;;;5.20;nan;96668.94;2065787;28;20049;-64
2024/02/05 04:34:01;;;;;;;4.80;1.67;;;;;;;5.18;nan;96668.09;2065860;28;20058;-65
2024/02/05 04:35:03;;;;;;;2.65;1.10;;;;;;;5.18;nan;96668.09;2066108;28;20479;-65
2024/02/05 04:36:09;;;;;;;2.92;0.95;;;;;;;5.17;nan;96664.69;2065805;28;20045;-64
2024/02/05 04:37:10;;;;;;;3.53;1.02;;;;;;;5.16;nan;96663.00;2065822;28;20045;-64
2024/02/05 04:38:11;;;;;;;5.25;1.42;;;;;;;5.17;nan;96669.00;2065323;28;20053;-64
2024/02/05 04:39:12;;;;;;;1.90;0.98;;;;;;;5.15;nan;96673.31;2065816;28;20034;-64
2024/02/05 04:40:13;;;;;;;2.78;1.05;;;;;;;5.14;nan;96662.16;2065884;28;20043;-64
2024/02/05 04:41:14;;;;;;;2.47;1.00;;;;;;;5.13;nan;96664.75;2065826;28;20034;-65
2024/02/05 04:42:15;;;;;;;3.17;1.10;;;;;;;5.12;nan;96665.63;2065737;28;20046;-64
2024/02/05 04:43:16;;;;;;;2.60;1.23;;;;;;;5.13;nan;96662.16;2065424;28;20061;-64
2024/02/05 04:44:17;;;;;;;4.38;1.50;;;;;;;5.10;nan;96650.19;2065486;28;20054;-64
2024/02/05 04:45:18;;;;;;;2.72;1.17;;;;;;;5.08;nan;96651.97;2065373;28;20474;-64
2024/02/05 04:46:19;;;;;;;4.32;0.93;;;;;;;5.07;nan;96660.53;2065779;28;20034;-65
2024/02/05 04:47:21;;;;;;;3.75;1.10;;;;;;;5.03;nan;96656.34;2065857;28;20057;-64
2024/02/05 04:48:22;;;;;;;4.65;1.30;;;;;;;5.02;nan;96657.19;2065298;28;20042;-64
2024/02/05 04:49:23;;;;;;;5.82;1.02;;;;;;;5.00;nan;96656.38;2065040;28;20042;-64
2024/02/05 04:50:24;;;;;;;2.72;1.30;;;;;;;5.00;nan;96658.94;2065714;28;20049;-64
2024/02/05 04:51:25;;;;;;;2.00;1.08;;;;;;;4.94;nan;96659.03;2065969;28;20034;-65
2024/02/05 04:52:26;;;;;;;6.15;1.63;;;;;;;4.92;nan;96663.34;2065357;28;20054;-64
2024/02/05 04:53:27;;;;;;;2.17;1.20;;;;;;;4.94;nan;96657.28;2064670;28;20502;-64
2024/02/05 04:54:29;;;;;;;3.20;1.25;;;;;;;4.92;nan;96659.06;2065947;28;20042;-64
2024/02/05 04:55:30;;;;;;;3.92;1.40;;;;;;;4.92;nan;96658.19;2065636;28;20064;-64
2024/02/05 04:56:31;;;;;;;2.85;1.30;;;;;;;4.92;nan;96663.34;2065499;28;20071;-64
2024/02/05 04:57:32;;;;;;;4.50;1.30;;;;;;;4.91;nan;96651.34;2065476;28;20507;-65
2024/02/05 04:58:33;;;;;;;3.92;1.33;;;;;;;4.93;nan;96663.31;2065060;28;20046;-64
2024/02/05 04:59:35;;;;;;;2.85;1.15;;;;;;;4.91;nan;96656.50;2065473;28;20592;-64
2024/02/05 05:00:36;;;;;;;2.67;1.10;;;;;;;4.88;nan;96649.66;2065608;28;20061;-64